createdAt,value
2017-11-01T00:01:05.358Z,75.20
2017-11-01T00:03:34.049Z,75.00
2017-11-01T00:06:02.736Z,74.90
2017-11-01T00:08:32.445Z,76.50
2017-11-01T00:11:01.129Z,76.50
2017-11-01T00:13:30.842Z,75.90
2017-11-01T00:15:59.736Z,75.80
2017-11-01T00:18:28.413Z,76.10
2017-11-01T00:20:57.147Z,76.40
2017-11-01T00:23:25.890Z,76.60
2017-11-01T00:25:54.676Z,76.50
2017-11-01T00:28:23.464Z,76.70
2017-11-01T00:30:52.153Z,77.20
2017-11-01T00:33:20.837Z,77.10
2017-11-01T00:35:49.532Z,76.80
2017-11-01T00:38:18.624Z,77.00
2017-11-01T00:40:48.279Z,76.80
2017-11-01T00:43:17.016Z,76.80
2017-11-01T00:45:46.015Z,76.90
2017-11-01T00:48:15.012Z,77.60
2017-11-01T00:50:44.461Z,77.80
2017-11-01T00:53:14.123Z,77.50
2017-11-01T00:55:42.944Z,77.50
2017-11-01T00:58:11.643Z,77.50
2017-11-01T01:00:40.380Z,78.10
2017-11-01T01:03:10.142Z,78.20
2017-11-01T01:05:38.889Z,78.00
2017-11-01T01:08:07.711Z,78.10
2017-11-01T01:10:36.607Z,78.30
2017-11-01T01:13:06.067Z,78.30
2017-11-01T01:15:34.855Z,78.20
2017-11-01T01:18:04.578Z,78.40
2017-11-01T01:20:33.250Z,78.40
2017-11-01T01:23:03.640Z,78.40
2017-11-01T01:25:32.365Z,78.30
2017-11-01T01:28:01.317Z,78.50
2017-11-01T01:30:30.195Z,78.70
2017-11-01T01:32:59.035Z,78.50
2017-11-01T01:35:27.722Z,78.80
2017-11-01T01:37:56.553Z,78.70
2017-11-01T01:40:25.299Z,78.90
2017-11-01T01:42:54.190Z,78.90
2017-11-01T01:45:23.285Z,79.10
2017-11-01T01:47:51.973Z,79.30
2017-11-01T01:50:20.665Z,79.50
2017-11-01T01:52:49.756Z,79.60
2017-11-01T01:55:18.549Z,79.80
2017-11-01T01:57:47.436Z,79.70
2017-11-01T02:00:16.532Z,80.30
2017-11-01T02:02:46.244Z,80.50
2017-11-01T02:05:15.132Z,80.50
2017-11-01T02:07:44.023Z,80.50
2017-11-01T02:10:14.761Z,80.50
2017-11-01T02:12:43.647Z,80.80
2017-11-01T02:15:13.358Z,81.00
2017-11-01T02:17:42.863Z,81.10
2017-11-01T02:20:12.776Z,81.00
2017-11-01T02:22:41.573Z,80.80
2017-11-01T02:25:10.458Z,81.10
2017-11-01T02:27:39.351Z,81.50
2017-11-01T02:30:08.447Z,81.40
2017-11-01T02:32:37.336Z,81.20
2017-11-01T02:35:06.231Z,81.10
2017-11-01T02:37:35.120Z,81.40
2017-11-01T02:40:04.008Z,81.20
2017-11-01T02:42:33.721Z,82.30
2017-11-01T02:45:02.758Z,81.70
2017-11-01T02:47:31.705Z,81.40
2017-11-01T02:50:00.808Z,81.80
2017-11-01T02:52:30.512Z,82.10
2017-11-01T02:54:59.645Z,81.90
2017-11-01T02:57:28.806Z,81.90
2017-11-01T02:59:57.595Z,82.10
2017-11-01T03:02:29.354Z,81.50
2017-11-01T03:04:58.348Z,81.60
2017-11-01T03:07:27.239Z,81.90
2017-11-01T03:09:56.131Z,81.10
2017-11-01T03:12:25.023Z,81.20
2017-11-01T03:14:53.746Z,81.20
2017-11-01T03:17:23.421Z,81.80
2017-11-01T03:19:52.311Z,81.70
2017-11-01T03:22:21.509Z,81.50
2017-11-01T03:24:51.169Z,81.50
2017-11-01T03:27:20.330Z,81.40
2017-11-01T03:29:49.410Z,82.40
2017-11-01T03:32:18.494Z,82.00
2017-11-01T03:34:47.831Z,82.60
2017-11-01T03:37:16.827Z,82.50
2017-11-01T03:39:45.892Z,82.70
2017-11-01T03:42:15.091Z,82.80
2017-11-01T03:44:44.028Z,83.10
2017-11-01T03:47:12.981Z,82.80
2017-11-01T03:49:41.984Z,82.80
2017-11-01T03:52:11.212Z,82.90
2017-11-01T03:54:40.668Z,83.30
2017-11-01T03:57:09.562Z,83.50
2017-11-01T03:59:39.274Z,83.20
2017-11-01T04:02:08.162Z,83.10
2017-11-01T04:04:38.080Z,83.00
2017-11-01T04:07:07.688Z,82.80
2017-11-01T04:09:36.785Z,83.10
2017-11-01T04:12:06.707Z,83.00
2017-11-01T04:14:35.801Z,82.90
2017-11-01T04:17:05.200Z,82.80
2017-11-01T04:19:37.061Z,82.90
2017-11-01T04:22:05.930Z,82.90
2017-11-01T04:24:34.842Z,82.90
2017-11-01T04:27:03.735Z,82.80
2017-11-01T04:29:33.647Z,83.30
2017-11-01T04:32:02.854Z,83.20
2017-11-01T04:34:32.049Z,83.10
2017-11-01T04:37:01.036Z,82.90
2017-11-01T04:39:31.173Z,82.80
2017-11-01T04:42:01.788Z,83.00
2017-11-01T04:44:30.786Z,83.00
2017-11-01T04:47:00.629Z,83.10
2017-11-01T04:49:29.804Z,83.10
2017-11-01T04:51:59.337Z,83.00
2017-11-01T04:54:29.385Z,83.20
2017-11-01T04:56:59.180Z,83.40
2017-11-01T04:59:28.539Z,83.30
2017-11-01T05:01:57.785Z,83.60
2017-11-01T05:04:26.748Z,83.20
2017-11-01T05:06:57.705Z,83.10
2017-11-01T05:09:26.555Z,82.90
2017-11-01T05:11:55.551Z,83.20
2017-11-01T05:14:29.503Z,83.20
2017-11-01T05:16:59.340Z,83.10
2017-11-01T05:19:28.552Z,83.10
2017-11-01T05:21:58.584Z,83.00
2017-11-01T05:24:30.859Z,83.10
2017-11-01T05:27:00.979Z,83.20
2017-11-01T05:29:30.554Z,82.80
2017-11-01T05:31:59.732Z,82.90
2017-11-01T05:34:30.413Z,83.00
2017-11-01T05:37:00.653Z,83.40
2017-11-01T05:39:29.834Z,83.40
2017-11-01T05:41:59.459Z,83.50
2017-11-01T05:44:29.200Z,83.60
2017-11-01T05:46:59.154Z,84.60
2017-11-01T05:49:28.212Z,84.00
2017-11-01T05:51:57.468Z,83.90
2017-11-01T05:54:26.706Z,84.10
2017-11-01T05:56:55.866Z,84.00
2017-11-01T05:59:24.892Z,84.00
2017-11-01T06:01:54.069Z,83.90
2017-11-01T06:04:22.944Z,84.00
2017-11-01T06:06:51.841Z,83.90
2017-11-01T06:09:21.101Z,84.10
2017-11-01T06:11:52.655Z,84.00
2017-11-01T06:14:21.681Z,84.20
2017-11-01T06:16:50.927Z,83.90
2017-11-01T06:19:19.878Z,83.80
2017-11-01T06:21:49.672Z,83.90
2017-11-01T06:24:19.271Z,83.90
2017-11-01T06:26:48.810Z,83.70
2017-11-01T06:29:18.845Z,83.30
2017-11-01T06:31:47.864Z,83.20
2017-11-01T06:34:16.905Z,83.20
2017-11-01T06:36:47.438Z,83.60
2017-11-01T06:39:17.247Z,83.50
2017-11-01T06:41:47.878Z,83.40
2017-11-01T06:44:16.769Z,83.30
2017-11-01T06:46:45.664Z,83.40
2017-11-01T06:49:14.653Z,83.20
2017-11-01T06:51:44.365Z,83.40
2017-11-01T06:54:13.359Z,83.10
2017-11-01T06:56:41.997Z,82.80
2017-11-01T06:59:10.737Z,82.80
2017-11-01T07:01:40.449Z,82.80
2017-11-01T07:04:09.333Z,82.90
2017-11-01T07:06:38.017Z,83.00
2017-11-01T07:09:09.981Z,82.50
2017-11-01T07:11:38.872Z,82.20
2017-11-01T07:14:07.765Z,82.10
2017-11-01T07:16:36.669Z,81.60
2017-11-01T07:19:06.572Z,81.30
2017-11-01T07:21:35.308Z,81.30
2017-11-01T07:24:04.981Z,80.90
2017-11-01T07:26:33.917Z,80.90
2017-11-01T07:29:02.851Z,80.20
2017-11-01T07:31:31.947Z,80.20
2017-11-01T07:34:00.583Z,79.90
2017-11-01T07:36:29.731Z,80.10
2017-11-01T07:38:58.629Z,79.70
2017-11-01T07:41:27.520Z,79.70
2017-11-01T07:43:56.136Z,80.00
2017-11-01T07:46:24.837Z,79.60
2017-11-01T07:48:54.698Z,79.10
2017-11-01T07:51:29.238Z,78.50
2017-11-01T07:53:58.960Z,78.30
2017-11-01T07:56:27.684Z,78.00
2017-11-01T07:58:56.511Z,77.70
2017-11-01T08:01:25.709Z,78.00
2017-11-01T08:03:54.499Z,77.90
2017-11-01T08:06:23.385Z,77.10
2017-11-01T08:08:52.077Z,77.30
2017-11-01T08:11:20.878Z,77.70
2017-11-01T08:13:49.753Z,77.50
2017-11-01T08:16:18.453Z,77.40
2017-11-01T08:18:47.301Z,77.00
2017-11-01T08:21:16.029Z,76.70
2017-11-01T08:23:44.902Z,76.70
2017-11-01T08:26:15.431Z,75.90
2017-11-01T08:28:44.323Z,75.90
2017-11-01T08:31:13.009Z,75.70
2017-11-01T08:33:41.900Z,75.80
2017-11-01T08:36:10.587Z,75.10
2017-11-01T08:38:39.477Z,74.50
2017-11-01T08:41:09.140Z,74.20
2017-11-01T08:43:37.875Z,74.20
2017-11-01T08:46:06.573Z,74.00
2017-11-01T08:48:35.458Z,74.30
2017-11-01T08:51:04.380Z,73.30
2017-11-01T08:53:34.667Z,72.90
2017-11-01T08:56:03.558Z,72.90
2017-11-01T08:58:32.593Z,72.80
2017-11-01T09:01:02.029Z,72.30
2017-11-01T09:03:30.786Z,72.60
2017-11-01T09:06:00.316Z,72.60
2017-11-01T09:08:29.191Z,72.00
2017-11-01T09:10:57.932Z,72.10
2017-11-01T09:13:26.770Z,72.40
2017-11-01T09:15:55.509Z,72.40
2017-11-01T09:18:24.811Z,72.20
2017-11-01T09:20:54.148Z,71.70
2017-11-01T09:23:23.826Z,71.30
2017-11-01T09:25:52.710Z,71.20
2017-11-01T09:28:21.395Z,71.40
2017-11-01T09:30:50.287Z,70.80
2017-11-01T09:33:19.192Z,71.80
2017-11-01T09:35:47.863Z,70.70
2017-11-01T09:38:16.453Z,71.00
2017-11-01T09:40:45.422Z,70.40
2017-11-01T09:43:14.129Z,70.90
2017-11-01T09:45:42.815Z,70.40
2017-11-01T09:48:11.614Z,70.60
2017-11-01T09:50:40.388Z,70.60
2017-11-01T09:53:09.496Z,70.60
2017-11-01T09:55:38.380Z,70.20
2017-11-01T09:58:07.064Z,70.10
2017-11-01T10:00:35.760Z,70.00
2017-11-01T10:03:04.641Z,69.80
2017-11-01T10:05:33.331Z,69.60
2017-11-01T10:08:02.219Z,69.00
2017-11-01T10:10:31.107Z,69.20
2017-11-01T10:12:59.752Z,68.00
2017-11-01T10:15:29.197Z,69.00
2017-11-01T10:17:58.089Z,68.90
2017-11-01T10:20:26.981Z,69.10
2017-11-01T10:22:56.881Z,68.70
2017-11-01T10:25:25.790Z,68.60
2017-11-01T10:27:55.231Z,68.50
2017-11-01T10:30:24.080Z,68.20
2017-11-01T10:32:52.970Z,68.40
2017-11-01T10:35:21.777Z,68.20
2017-11-01T10:37:52.189Z,69.00
2017-11-01T10:40:21.076Z,69.10
2017-11-01T10:42:49.915Z,67.20
2017-11-01T10:45:19.682Z,68.60
2017-11-01T10:47:48.518Z,68.50
2017-11-01T10:50:17.260Z,68.30
2017-11-01T10:52:46.150Z,67.60
2017-11-01T10:55:15.319Z,67.40
2017-11-01T10:57:44.154Z,67.90
2017-11-01T11:00:14.266Z,68.80
2017-11-01T11:02:43.151Z,69.40
2017-11-01T11:05:11.834Z,68.80
2017-11-01T11:07:40.627Z,69.00
2017-11-01T11:10:09.513Z,69.50
2017-11-01T11:12:38.303Z,69.80
2017-11-01T11:15:06.984Z,69.70
2017-11-01T11:17:35.885Z,68.90
2017-11-01T11:20:04.768Z,68.50
2017-11-01T11:22:33.456Z,68.80
2017-11-01T11:25:02.248Z,69.50
2017-11-01T11:27:31.137Z,70.10
2017-11-01T11:30:00.126Z,69.90
2017-11-01T11:32:29.016Z,69.40
2017-11-01T11:34:57.908Z,69.20
2017-11-01T11:40:24.164Z,69.50
2017-11-01T11:42:52.844Z,69.40
2017-11-01T11:45:21.502Z,69.30
2017-11-01T11:47:50.222Z,69.70
2017-11-01T11:50:19.109Z,70.10
2017-11-01T11:52:47.948Z,69.40
2017-11-01T11:55:16.787Z,69.30
2017-11-01T11:57:45.788Z,69.10
2017-11-01T12:00:15.111Z,69.10
2017-11-01T12:02:44.193Z,69.00
2017-11-01T12:05:13.072Z,69.20
2017-11-01T12:07:41.771Z,69.70
2017-11-01T12:10:10.647Z,69.40
2017-11-01T12:12:39.539Z,69.10
2017-11-01T12:15:08.428Z,69.10
2017-11-01T12:17:37.319Z,67.90
2017-11-01T12:20:06.013Z,67.50
2017-11-01T12:22:34.700Z,67.40
2017-11-01T12:28:12.855Z,68.00
2017-11-01T12:30:41.741Z,67.60
2017-11-01T12:33:10.433Z,67.80
2017-11-01T12:35:39.323Z,68.40
2017-11-01T12:38:08.165Z,68.60
2017-11-01T12:40:37.668Z,68.60
2017-11-01T12:43:06.409Z,68.60
2017-11-01T12:45:35.299Z,68.00
2017-11-01T12:48:03.984Z,68.20
2017-11-01T12:50:32.663Z,68.40
2017-11-01T12:53:01.351Z,68.10
2017-11-01T12:55:30.035Z,68.30
2017-11-01T12:57:58.781Z,69.50
2017-11-01T13:00:27.516Z,70.20
2017-11-01T13:02:56.197Z,70.20
2017-11-01T13:05:24.885Z,70.10
2017-11-01T13:07:53.569Z,70.20
2017-11-01T13:10:22.464Z,70.50
2017-11-01T13:12:51.352Z,70.10
2017-11-01T13:15:20.048Z,70.40
2017-11-01T13:17:48.929Z,71.10
2017-11-01T13:20:18.026Z,70.80
2017-11-01T13:22:47.227Z,70.20
2017-11-01T13:25:16.020Z,68.30
2017-11-01T13:27:44.960Z,63.60
2017-11-01T13:30:14.618Z,61.20
2017-11-01T13:32:43.302Z,61.20
2017-11-01T13:35:13.934Z,61.30
2017-11-01T13:37:42.631Z,61.30
2017-11-01T13:40:11.515Z,63.80
2017-11-01T13:42:40.607Z,64.20
2017-11-01T13:45:09.497Z,64.20
2017-11-01T13:47:38.181Z,62.40
2017-11-01T13:50:07.009Z,62.00
2017-11-01T13:52:35.948Z,63.50
2017-11-01T13:55:04.822Z,64.20
2017-11-01T13:57:33.751Z,64.10
2017-11-01T14:00:02.647Z,63.20
2017-11-01T14:02:32.141Z,64.00
2017-11-01T14:05:01.036Z,64.00
2017-11-01T14:07:29.721Z,64.20
2017-11-01T14:09:58.360Z,64.90
2017-11-01T14:12:27.303Z,65.90
2017-11-01T14:14:55.988Z,65.80
2017-11-01T14:17:24.876Z,66.80
2017-11-01T14:19:53.563Z,68.70
2017-11-01T14:22:22.244Z,69.40
2017-11-01T14:24:50.943Z,70.40
2017-11-01T14:27:20.835Z,70.60
2017-11-01T14:29:49.487Z,71.40
2017-11-01T14:32:18.222Z,72.30
2017-11-01T14:34:47.734Z,73.20
2017-11-01T14:37:16.414Z,73.10
2017-11-01T14:39:45.098Z,73.90
2017-11-01T14:42:13.947Z,74.10
2017-11-01T14:44:42.676Z,74.10
2017-11-01T14:47:11.363Z,74.40
2017-11-01T14:49:40.048Z,75.30
2017-11-01T14:52:08.836Z,75.30
2017-11-01T14:54:37.832Z,75.20
2017-11-01T14:57:06.723Z,75.50
2017-11-01T14:59:35.662Z,75.80
2017-11-01T15:02:05.119Z,77.00
2017-11-01T15:04:33.803Z,76.90
2017-11-01T15:07:02.493Z,77.00
2017-11-01T15:09:31.277Z,77.70
2017-11-01T15:12:00.168Z,77.80
2017-11-01T15:14:29.032Z,78.40
2017-11-01T15:16:57.854Z,78.80
2017-11-01T15:19:26.745Z,78.60
2017-11-01T15:21:55.472Z,78.20
2017-11-01T15:24:24.218Z,78.40
2017-11-01T15:26:53.059Z,79.00
2017-11-01T15:29:22.509Z,79.70
2017-11-01T15:31:51.407Z,79.60
2017-11-01T15:34:20.633Z,80.40
2017-11-01T15:36:49.536Z,80.60
2017-11-01T15:39:19.097Z,80.00
2017-11-01T15:41:53.721Z,79.90
2017-11-01T15:44:22.628Z,80.20
2017-11-01T15:46:51.302Z,80.40
2017-11-01T15:49:20.212Z,80.50
2017-11-01T15:51:49.698Z,81.30
2017-11-01T15:54:18.801Z,81.10
2017-11-01T15:56:47.989Z,81.20
2017-11-01T15:59:16.824Z,81.00
2017-11-01T16:01:46.592Z,81.00
2017-11-01T16:04:15.485Z,81.30
2017-11-01T16:06:44.330Z,81.60
2017-11-01T16:09:13.883Z,82.50
2017-11-01T16:11:43.075Z,82.30
2017-11-01T16:14:11.969Z,82.00
2017-11-01T16:16:40.662Z,81.80
2017-11-01T16:19:10.569Z,82.50
2017-11-01T16:21:39.466Z,81.90
2017-11-01T16:24:08.343Z,81.60
2017-11-01T16:26:38.885Z,81.80
2017-11-01T16:29:07.944Z,82.00
2017-11-01T16:31:36.891Z,82.10
2017-11-01T16:34:05.616Z,82.00
2017-11-01T16:36:34.344Z,82.20
2017-11-01T16:39:03.233Z,82.60
2017-11-01T16:41:32.858Z,82.90
2017-11-01T16:44:01.849Z,83.30
2017-11-01T16:46:31.342Z,83.40
2017-11-01T16:49:01.374Z,83.80
2017-11-01T16:51:30.876Z,83.80
2017-11-01T16:54:00.335Z,84.20
2017-11-01T16:56:29.791Z,84.50
2017-11-01T16:58:59.905Z,84.50
2017-11-01T17:01:29.410Z,84.40
2017-11-01T17:03:58.883Z,84.50
2017-11-01T17:06:27.954Z,84.70
2017-11-01T17:08:57.431Z,84.30
2017-11-01T17:11:27.396Z,84.50
2017-11-01T17:13:56.639Z,84.30
2017-11-01T17:16:25.782Z,84.40
2017-11-01T17:18:55.633Z,84.30
2017-11-01T17:21:24.320Z,84.30
2017-11-01T17:23:53.206Z,84.50
2017-11-01T17:26:22.099Z,84.60
2017-11-01T17:28:50.985Z,84.50
2017-11-01T17:31:19.879Z,84.60
2017-11-01T17:33:48.773Z,84.40
2017-11-01T17:36:18.684Z,84.60
2017-11-01T17:38:48.120Z,84.60
2017-11-01T17:41:17.775Z,84.40
2017-11-01T17:43:46.865Z,84.30
2017-11-01T17:46:16.154Z,84.50
2017-11-01T17:48:45.057Z,84.50
2017-11-01T17:51:14.564Z,84.60
2017-11-01T17:53:43.586Z,84.60
2017-11-01T17:56:12.271Z,84.60
2017-11-01T17:58:41.985Z,84.70
2017-11-01T18:01:10.980Z,84.70
2017-11-01T18:03:39.975Z,84.80
2017-11-01T18:06:08.815Z,84.60
2017-11-01T18:08:37.819Z,84.70
2017-11-01T18:11:07.990Z,84.40
2017-11-01T18:13:37.890Z,84.50
2017-11-01T18:16:06.678Z,84.60
2017-11-01T18:18:36.181Z,84.40
2017-11-01T18:21:05.546Z,84.40
2017-11-01T18:23:35.095Z,84.50
2017-11-01T18:26:04.107Z,84.40
2017-11-01T18:28:34.721Z,84.90
2017-11-01T18:31:04.840Z,84.80
2017-11-01T18:33:33.689Z,85.00
2017-11-01T18:36:02.779Z,84.90
2017-11-01T18:38:32.190Z,85.10
2017-11-01T18:41:01.713Z,85.10
2017-11-01T18:43:30.725Z,85.20
2017-11-01T18:45:59.614Z,85.30
2017-11-01T18:48:29.698Z,85.60
2017-11-01T18:50:59.658Z,85.70
2017-11-01T18:53:28.949Z,85.70
2017-11-01T18:55:57.928Z,86.10
2017-11-01T18:58:27.290Z,86.30
2017-11-01T19:00:56.237Z,86.00
2017-11-01T19:03:25.363Z,85.90
2017-11-01T19:05:54.344Z,85.80
2017-11-01T19:08:23.237Z,85.70
2017-11-01T19:10:52.212Z,85.50
2017-11-01T19:13:21.106Z,85.40
2017-11-01T19:15:49.961Z,85.40
2017-11-01T19:18:18.985Z,85.40
2017-11-01T19:20:48.624Z,85.30
2017-11-01T19:23:20.629Z,85.20
2017-11-01T19:25:50.478Z,85.20
2017-11-01T19:28:25.357Z,85.20
2017-11-01T19:30:54.714Z,85.30
2017-11-01T19:33:23.822Z,85.40
2017-11-01T19:35:53.320Z,85.40
2017-11-01T19:38:22.403Z,85.50
2017-11-01T19:40:51.676Z,85.50
2017-11-01T19:43:21.997Z,85.60
2017-11-01T19:45:51.092Z,85.50
2017-11-01T19:48:19.821Z,85.50
2017-11-01T19:50:49.268Z,85.40
2017-11-01T19:53:18.250Z,85.10
2017-11-01T19:55:49.069Z,85.10
2017-11-01T19:58:18.037Z,85.10
2017-11-01T20:00:47.105Z,85.00
2017-11-01T20:03:17.379Z,85.00
2017-11-01T20:05:47.276Z,84.90
2017-11-01T20:08:17.308Z,84.90
2017-11-01T20:10:46.531Z,84.80
2017-11-01T20:13:16.157Z,85.00
2017-11-01T20:15:45.987Z,84.70
2017-11-01T20:18:15.275Z,84.80
2017-11-01T20:20:45.165Z,85.00
2017-11-01T20:23:14.905Z,84.90
2017-11-01T20:25:44.187Z,84.90
2017-11-01T20:28:14.056Z,85.10
2017-11-01T20:30:43.040Z,85.10
2017-11-01T20:33:11.833Z,85.30
2017-11-01T20:35:40.726Z,85.20
2017-11-01T20:38:09.922Z,85.30
2017-11-01T20:40:39.117Z,85.40
2017-11-01T20:43:08.011Z,85.60
2017-11-01T20:45:37.293Z,85.70
2017-11-01T20:48:08.987Z,85.90
2017-11-01T20:50:37.958Z,86.00
2017-11-01T20:53:06.820Z,86.00
2017-11-01T20:55:35.740Z,86.20
2017-11-01T20:58:05.319Z,86.20
2017-11-01T21:00:34.404Z,86.20
2017-11-01T21:03:03.890Z,86.30
2017-11-01T21:05:33.344Z,86.20
2017-11-01T21:08:03.268Z,86.40
2017-11-01T21:10:32.446Z,86.30
2017-11-01T21:13:02.783Z,86.20
2017-11-01T21:15:31.889Z,86.50
2017-11-01T21:18:01.225Z,86.50
2017-11-01T21:20:30.698Z,86.40
2017-11-01T21:23:00.210Z,86.50
2017-11-01T21:25:31.785Z,87.50
2017-11-01T21:28:01.053Z,86.80
2017-11-01T21:30:30.323Z,86.70
2017-11-01T21:33:00.298Z,86.70
2017-11-01T21:35:29.552Z,86.80
2017-11-01T21:37:58.504Z,86.80
2017-11-01T21:40:28.073Z,86.70
2017-11-01T21:42:56.961Z,86.60
2017-11-01T21:45:25.844Z,86.70
2017-11-01T21:47:54.748Z,86.70
2017-11-01T21:50:24.037Z,86.60
2017-11-01T21:52:52.945Z,86.80
2017-11-01T21:55:23.085Z,86.70
2017-11-01T21:57:51.947Z,86.70
2017-11-01T22:00:20.744Z,84.00
2017-11-01T22:02:50.447Z,87.10
2017-11-01T22:05:20.155Z,86.40
2017-11-01T22:07:49.047Z,86.30
2017-11-01T22:10:17.990Z,86.40
2017-11-01T22:12:47.565Z,86.40
2017-11-01T22:15:16.956Z,86.40
2017-11-01T22:17:45.746Z,86.50
2017-11-01T22:20:14.465Z,86.40
2017-11-01T22:22:43.318Z,86.20
2017-11-01T22:25:13.210Z,86.30
2017-11-01T22:27:43.042Z,86.70
2017-11-01T22:30:11.829Z,86.60
2017-11-01T22:32:40.923Z,86.80
2017-11-01T22:35:09.816Z,86.80
2017-11-01T22:37:38.503Z,86.90
2017-11-01T22:40:07.396Z,86.70
2017-11-01T22:42:36.558Z,86.80
2017-11-01T22:45:05.385Z,86.90
2017-11-01T22:47:34.275Z,86.90
2017-11-01T22:50:04.192Z,87.10
2017-11-01T22:52:33.082Z,87.10
2017-11-01T22:55:01.973Z,87.10
2017-11-01T22:57:31.189Z,87.20
2017-11-01T23:00:00.775Z,87.80
2017-11-01T23:02:31.076Z,87.20
2017-11-01T23:04:59.786Z,87.20
2017-11-01T23:07:29.301Z,87.30
2017-11-01T23:09:58.285Z,87.20
2017-11-01T23:12:27.779Z,87.40
2017-11-01T23:14:56.681Z,87.50
2017-11-01T23:17:25.573Z,87.60
2017-11-01T23:19:54.600Z,87.70
2017-11-01T23:22:23.362Z,87.80
2017-11-01T23:24:53.072Z,87.90
2017-11-01T23:27:22.372Z,87.90
2017-11-01T23:29:51.465Z,87.80
2017-11-01T23:32:20.361Z,87.80
2017-11-01T23:34:49.258Z,87.70
2017-11-01T23:37:18.134Z,87.30
2017-11-01T23:39:46.790Z,87.30
2017-11-01T23:42:15.514Z,87.30
2017-11-01T23:44:44.460Z,87.50
2017-11-01T23:47:13.153Z,87.70
2017-11-01T23:49:41.863Z,87.90
2017-11-01T23:52:10.720Z,88.00
2017-11-01T23:54:39.469Z,88.10
2017-11-01T23:57:08.226Z,88.10
2017-11-01T23:59:37.180Z,87.80
